createdAt,value
2022-08-02T00:00:20.373Z,0.00
2022-08-02T00:01:20.339Z,0.00
2022-08-02T00:02:20.426Z,0.00
2022-08-02T00:03:20.215Z,0.00
2022-08-02T00:04:20.192Z,0.00
2022-08-02T00:05:20.157Z,0.00
2022-08-02T00:06:20.128Z,0.00
2022-08-02T00:07:20.098Z,0.00
2022-08-02T00:08:20.191Z,0.00
2022-08-02T00:09:20.046Z,0.00
2022-08-02T00:10:20.019Z,0.00
2022-08-02T00:11:19.989Z,0.00
2022-08-02T00:12:19.958Z,0.00
2022-08-02T00:13:19.929Z,0.00
2022-08-02T00:14:19.985Z,0.00
2022-08-02T00:15:19.873Z,0.00
2022-08-02T00:16:19.841Z,0.00
2022-08-02T00:17:19.835Z,0.00
2022-08-02T00:18:19.786Z,0.00
2022-08-02T00:19:19.758Z,0.00
2022-08-02T00:20:19.780Z,0.00
2022-08-02T00:21:19.708Z,0.00
2022-08-02T00:22:19.677Z,0.00
2022-08-02T00:23:19.653Z,0.00
2022-08-02T00:24:29.572Z,0.00
2022-08-02T00:25:19.648Z,0.00
2022-08-02T00:26:19.645Z,0.00
2022-08-02T00:27:20.056Z,0.00
2022-08-02T00:28:23.183Z,0.00
2022-08-02T00:29:19.478Z,0.00
2022-08-02T00:30:19.452Z,0.00
2022-08-02T00:31:19.616Z,0.00
2022-08-02T00:32:19.396Z,0.00
2022-08-02T00:34:05.636Z,0.00
2022-08-02T00:34:28.640Z,0.00
2022-08-02T00:35:19.308Z,0.00
2022-08-02T00:36:19.282Z,0.00
2022-08-02T00:37:19.318Z,0.00
2022-08-02T00:38:19.225Z,0.00
2022-08-02T00:39:34.999Z,0.00
2022-08-02T00:40:19.169Z,0.00
2022-08-02T00:41:19.142Z,0.00
2022-08-02T00:42:19.162Z,0.00
2022-08-02T00:43:19.131Z,0.00
2022-08-02T00:44:19.060Z,0.00
2022-08-02T00:45:19.026Z,0.00
2022-08-02T00:46:19.000Z,0.00
2022-08-02T00:47:19.434Z,0.00
2022-08-02T00:48:18.992Z,0.00
2022-08-02T00:49:18.968Z,0.00
2022-08-02T00:50:18.893Z,0.00
2022-08-02T00:51:18.934Z,0.00
2022-08-02T00:52:18.832Z,0.00
2022-08-02T00:53:18.859Z,0.00
2022-08-02T00:54:18.829Z,0.00
2022-08-02T00:55:18.804Z,0.00
2022-08-02T00:56:18.743Z,0.00
2022-08-02T00:57:19.561Z,0.00
2022-08-02T00:58:18.670Z,0.00
2022-08-02T00:59:18.699Z,0.00
2022-08-02T01:00:18.678Z,0.00
2022-08-02T01:01:18.613Z,0.00
2022-08-02T01:02:18.608Z,0.00
2022-08-02T01:03:18.520Z,0.00
2022-08-02T01:04:18.487Z,0.00
2022-08-02T01:05:18.536Z,0.00
2022-08-02T01:06:18.433Z,0.00
2022-08-02T01:07:18.407Z,0.00
2022-08-02T01:08:18.381Z,0.00
2022-08-02T01:09:18.350Z,0.00
2022-08-02T01:10:18.324Z,0.00
2022-08-02T01:11:18.341Z,0.00
2022-08-02T01:12:18.266Z,0.00
2022-08-02T01:13:18.238Z,0.00
2022-08-02T01:14:18.205Z,0.00
2022-08-02T01:15:18.233Z,0.00
2022-08-02T01:16:18.200Z,0.00
2022-08-02T01:17:18.124Z,0.00
2022-08-02T01:18:18.099Z,0.00
2022-08-02T01:19:18.066Z,0.00
2022-08-02T01:20:18.109Z,0.00
2022-08-02T01:21:18.010Z,0.00
2022-08-02T01:22:17.980Z,0.00
2022-08-02T01:23:20.463Z,0.00
2022-08-02T01:24:17.995Z,0.00
2022-08-02T01:25:17.898Z,0.00
2022-08-02T01:26:18.062Z,0.00
2022-08-02T01:27:17.839Z,0.00
2022-08-02T01:28:17.812Z,0.00
2022-08-02T01:29:17.785Z,0.00
2022-08-02T01:30:17.754Z,0.00
2022-08-02T01:31:17.735Z,0.00
2022-08-02T01:32:17.759Z,0.00
2022-08-02T01:33:17.670Z,0.00
2022-08-02T01:34:17.664Z,0.00
2022-08-02T01:35:17.615Z,0.00
2022-08-02T01:36:17.582Z,0.00
2022-08-02T01:37:17.625Z,0.00
2022-08-02T01:38:17.528Z,0.00
2022-08-02T01:39:26.463Z,0.00
2022-08-02T01:40:17.481Z,0.00
2022-08-02T01:41:17.450Z,0.00
2022-08-02T01:42:17.417Z,0.00
2022-08-02T01:43:17.567Z,0.00
2022-08-02T01:44:17.455Z,0.00
2022-08-02T01:45:17.330Z,0.00
2022-08-02T01:46:17.301Z,0.00
2022-08-02T01:47:17.276Z,0.00
2022-08-02T01:48:17.250Z,0.00
2022-08-02T01:49:17.318Z,0.00
2022-08-02T01:50:17.213Z,0.00
2022-08-02T01:51:17.159Z,0.00
2022-08-02T01:52:17.142Z,0.00
2022-08-02T01:53:17.100Z,0.00
2022-08-02T01:54:17.148Z,0.00
2022-08-02T01:55:19.068Z,0.00
2022-08-02T01:56:17.014Z,0.00
2022-08-02T01:57:16.986Z,0.00
2022-08-02T01:58:16.961Z,0.00
2022-08-02T01:59:16.954Z,0.00
2022-08-02T02:00:16.967Z,0.00
2022-08-02T02:01:18.563Z,0.00
2022-08-02T02:02:16.847Z,0.00
2022-08-02T02:03:16.825Z,0.00
2022-08-02T02:04:16.789Z,0.00
2022-08-02T02:05:16.776Z,0.00
2022-08-02T02:06:21.265Z,0.00
2022-08-02T02:07:16.702Z,0.00
2022-08-02T02:08:27.475Z,0.00
2022-08-02T02:09:16.659Z,0.00
2022-08-02T02:10:16.619Z,0.00
2022-08-02T02:12:06.506Z,0.00
2022-08-02T02:12:19.205Z,0.00
2022-08-02T02:13:16.539Z,0.00
2022-08-02T02:14:16.505Z,0.00
2022-08-02T02:15:16.477Z,0.00
2022-08-02T02:16:16.457Z,0.00
2022-08-02T02:18:10.853Z,0.00
2022-08-02T02:18:18.073Z,0.00
2022-08-02T02:19:21.391Z,0.00
2022-08-02T02:20:16.338Z,0.00
2022-08-02T02:21:16.302Z,0.00
2022-08-02T02:22:16.281Z,0.00
2022-08-02T02:23:16.248Z,0.00
2022-08-02T02:24:16.289Z,0.00
2022-08-02T02:25:16.194Z,0.00
2022-08-02T02:26:17.520Z,0.00
2022-08-02T02:27:16.130Z,0.00
2022-08-02T02:28:16.101Z,0.00
2022-08-02T02:29:16.069Z,0.00
2022-08-02T02:30:16.101Z,0.00
2022-08-02T02:31:16.012Z,0.00
2022-08-02T02:32:15.982Z,0.00
2022-08-02T02:33:15.957Z,0.00
2022-08-02T02:34:15.926Z,0.00
2022-08-02T02:35:15.963Z,0.00
2022-08-02T02:36:15.870Z,0.00
2022-08-02T02:37:15.836Z,0.00
2022-08-02T02:38:15.810Z,0.00
2022-08-02T02:39:15.777Z,0.00
2022-08-02T02:40:15.755Z,0.00
2022-08-02T02:41:15.923Z,0.00
2022-08-02T02:42:15.696Z,0.00
2022-08-02T02:43:15.702Z,0.00
2022-08-02T02:44:15.633Z,0.00
2022-08-02T02:45:15.606Z,0.00
2022-08-02T02:46:15.595Z,0.00
2022-08-02T02:47:15.629Z,0.00
2022-08-02T02:48:15.526Z,0.00
2022-08-02T02:49:15.639Z,0.00
2022-08-02T02:50:15.455Z,0.00
2022-08-02T02:51:15.428Z,0.00
2022-08-02T02:52:15.402Z,0.00
2022-08-02T02:53:15.435Z,0.00
2022-08-02T02:54:30.740Z,0.00
2022-08-02T02:55:15.308Z,0.00
2022-08-02T02:56:15.275Z,0.00
2022-08-02T02:57:15.254Z,0.00
2022-08-02T02:58:15.223Z,0.00
2022-08-02T02:59:15.266Z,0.00
2022-08-02T03:00:15.183Z,0.00
2022-08-02T03:01:15.252Z,0.00
2022-08-02T03:02:15.371Z,0.00
2022-08-02T03:03:15.073Z,0.00
2022-08-02T03:04:15.047Z,0.00
2022-08-02T03:05:15.071Z,0.00
2022-08-02T03:06:15.927Z,0.00
2022-08-02T03:07:14.959Z,0.00
2022-08-02T03:08:14.928Z,0.00
2022-08-02T03:09:14.896Z,0.00
2022-08-02T03:10:14.968Z,0.00
2022-08-02T03:11:14.891Z,0.00
2022-08-02T03:12:14.828Z,0.00
2022-08-02T03:13:14.795Z,0.00
2022-08-02T03:14:14.772Z,0.00
2022-08-02T03:15:14.726Z,0.00
2022-08-02T03:16:14.767Z,0.00
2022-08-02T03:17:14.666Z,0.00
2022-08-02T03:18:14.629Z,0.00
2022-08-02T03:19:14.608Z,0.00
2022-08-02T03:20:14.620Z,0.00
2022-08-02T03:21:14.547Z,0.00
2022-08-02T03:22:14.663Z,0.00
2022-08-02T03:23:14.492Z,5.63
2022-08-02T03:24:14.455Z,5.63
2022-08-02T03:25:14.433Z,5.63
2022-08-02T03:26:14.404Z,5.63
2022-08-02T03:27:14.427Z,5.63
2022-08-02T03:28:14.342Z,5.63
2022-08-02T03:29:14.311Z,5.63
2022-08-02T03:30:14.281Z,5.63
2022-08-02T03:31:14.256Z,11.25
2022-08-02T03:32:14.613Z,11.25
2022-08-02T03:33:14.196Z,11.25
2022-08-02T03:34:14.161Z,11.25
2022-08-02T03:35:14.134Z,16.88
2022-08-02T03:36:14.107Z,16.88
2022-08-02T03:37:14.082Z,16.88
2022-08-02T03:38:14.099Z,22.50
2022-08-02T03:39:14.015Z,22.50
2022-08-02T03:40:13.999Z,22.50
2022-08-02T03:41:13.957Z,28.13
2022-08-02T03:42:13.968Z,28.13
2022-08-02T03:43:13.966Z,28.13
2022-08-02T03:44:13.870Z,33.75
2022-08-02T03:45:13.843Z,33.75
2022-08-02T03:46:13.808Z,39.38
2022-08-02T03:47:13.783Z,39.38
2022-08-02T03:48:34.231Z,45.00
2022-08-02T03:49:13.846Z,45.00
2022-08-02T03:50:13.704Z,45.00
2022-08-02T03:51:13.667Z,45.00
2022-08-02T03:52:13.953Z,50.63
2022-08-02T03:53:20.026Z,56.25
2022-08-02T03:54:13.635Z,61.88
2022-08-02T03:55:13.547Z,67.50
2022-08-02T03:56:13.526Z,67.50
2022-08-02T03:57:13.501Z,73.13
2022-08-02T03:58:13.464Z,73.13
2022-08-02T03:59:13.500Z,78.75
2022-08-02T04:00:13.408Z,78.75
2022-08-02T04:01:13.440Z,78.75
2022-08-02T04:02:13.739Z,84.38
2022-08-02T04:03:13.310Z,84.38
2022-08-02T04:04:13.283Z,90.00
2022-08-02T04:05:13.380Z,84.38
2022-08-02T04:06:13.232Z,90.00
2022-08-02T04:07:13.194Z,90.00
2022-08-02T04:08:37.026Z,90.00
2022-08-02T04:09:13.141Z,90.00
2022-08-02T04:10:13.177Z,90.00
2022-08-02T04:11:13.084Z,95.63
2022-08-02T04:12:13.358Z,101.25
2022-08-02T04:13:13.037Z,101.25
2022-08-02T04:14:13.009Z,106.88
2022-08-02T04:15:13.193Z,112.50
2022-08-02T04:16:13.200Z,112.50
2022-08-02T04:17:12.899Z,123.75
2022-08-02T04:18:13.674Z,135.00
2022-08-02T04:19:14.732Z,146.25
2022-08-02T04:20:12.812Z,140.63
2022-08-02T04:21:13.262Z,123.75
2022-08-02T04:22:13.089Z,129.38
2022-08-02T04:23:13.516Z,146.25
2022-08-02T04:24:12.701Z,151.88
2022-08-02T04:25:17.145Z,140.63
2022-08-02T04:26:12.694Z,140.63
2022-08-02T04:27:35.554Z,146.25
2022-08-02T04:28:16.733Z,157.50
2022-08-02T04:29:12.551Z,163.13
2022-08-02T04:30:12.521Z,163.13
2022-08-02T04:31:12.547Z,174.38
2022-08-02T04:32:12.815Z,174.38
2022-08-02T04:33:12.430Z,174.38
2022-08-02T04:34:15.083Z,163.13
2022-08-02T04:35:19.343Z,151.88
2022-08-02T04:36:12.349Z,157.50
2022-08-02T04:37:12.372Z,163.13
2022-08-02T04:38:12.288Z,174.38
2022-08-02T04:39:12.260Z,185.63
2022-08-02T04:40:12.226Z,202.50
2022-08-02T04:41:12.211Z,213.75
2022-08-02T04:42:12.431Z,225.00
2022-08-02T04:43:12.332Z,225.00
2022-08-02T04:44:12.114Z,225.00
2022-08-02T04:45:16.512Z,230.63
2022-08-02T04:46:12.103Z,236.25
2022-08-02T04:47:12.082Z,247.50
2022-08-02T04:48:11.995Z,258.75
2022-08-02T04:49:12.021Z,247.50
2022-08-02T04:50:11.938Z,241.88
2022-08-02T04:51:11.905Z,241.88
2022-08-02T04:52:12.260Z,247.50
2022-08-02T04:53:11.898Z,241.88
2022-08-02T04:54:11.823Z,236.25
2022-08-02T04:55:11.794Z,230.63
2022-08-02T04:56:11.774Z,225.00
2022-08-02T04:57:11.796Z,219.38
2022-08-02T04:58:37.409Z,213.75
2022-08-02T04:59:11.675Z,213.75
2022-08-02T05:00:11.668Z,213.75
2022-08-02T05:01:11.670Z,219.38
2022-08-02T05:02:11.929Z,219.38
2022-08-02T05:03:11.647Z,230.63
2022-08-02T05:04:11.536Z,230.63
2022-08-02T05:05:11.503Z,230.63
2022-08-02T05:06:19.446Z,241.88
2022-08-02T05:07:11.454Z,247.50
2022-08-02T05:08:11.419Z,270.00
2022-08-02T05:09:11.447Z,281.25
2022-08-02T05:10:11.373Z,298.13
2022-08-02T05:11:11.334Z,309.38
2022-08-02T05:12:11.635Z,303.75
2022-08-02T05:13:11.281Z,309.38
2022-08-02T05:14:11.298Z,298.13
2022-08-02T05:15:12.890Z,303.75
2022-08-02T05:16:11.186Z,309.38
2022-08-02T05:17:11.161Z,275.63
2022-08-02T05:18:11.137Z,275.63
2022-08-02T05:19:11.159Z,298.13
2022-08-02T05:20:11.079Z,320.63
2022-08-02T05:21:11.047Z,354.38
2022-08-02T05:22:11.176Z,365.63
2022-08-02T05:23:10.991Z,371.25
2022-08-02T05:24:10.964Z,461.25
2022-08-02T05:25:10.990Z,483.75
2022-08-02T05:26:10.907Z,472.50
2022-08-02T05:27:21.285Z,534.38
2022-08-02T05:28:11.717Z,596.25
2022-08-02T05:29:10.815Z,601.88
2022-08-02T05:30:10.980Z,500.63
2022-08-02T05:31:12.536Z,371.25
2022-08-02T05:32:10.978Z,281.25
2022-08-02T05:33:10.716Z,264.38
2022-08-02T05:34:12.083Z,258.75
2022-08-02T05:35:10.692Z,258.75
2022-08-02T05:36:10.748Z,264.38
2022-08-02T05:37:10.603Z,253.13
2022-08-02T05:38:17.541Z,264.38
2022-08-02T05:39:12.317Z,348.75
2022-08-02T05:40:13.185Z,365.63
2022-08-02T05:41:10.488Z,309.38
2022-08-02T05:42:10.826Z,275.63
2022-08-02T05:43:10.438Z,253.13
2022-08-02T05:44:10.408Z,253.13
2022-08-02T05:45:10.375Z,253.13
2022-08-02T05:46:10.349Z,258.75
2022-08-02T05:47:10.379Z,258.75
2022-08-02T05:48:10.297Z,253.13
2022-08-02T05:49:10.314Z,247.50
2022-08-02T05:50:10.243Z,258.75
2022-08-02T05:51:10.216Z,270.00
2022-08-02T05:52:10.811Z,264.38
2022-08-02T05:53:10.337Z,264.38
2022-08-02T05:54:10.133Z,270.00
2022-08-02T05:55:10.180Z,270.00
2022-08-02T05:56:10.084Z,270.00
2022-08-02T05:57:10.202Z,270.00
2022-08-02T05:58:10.028Z,270.00
2022-08-02T05:59:09.994Z,281.25
2022-08-02T06:00:09.969Z,292.50
2022-08-02T06:01:09.942Z,298.13
2022-08-02T06:02:10.273Z,309.38
2022-08-02T06:03:10.391Z,309.38
2022-08-02T06:04:09.861Z,309.38
2022-08-02T06:05:09.836Z,315.00
2022-08-02T06:06:09.808Z,315.00
2022-08-02T06:07:09.782Z,315.00
2022-08-02T06:08:09.756Z,315.00
2022-08-02T06:09:10.034Z,309.38
2022-08-02T06:10:09.697Z,303.75
2022-08-02T06:11:09.672Z,298.13
2022-08-02T06:12:09.641Z,303.75
2022-08-02T06:13:09.620Z,303.75
2022-08-02T06:14:09.653Z,303.75
2022-08-02T06:15:09.651Z,309.38
2022-08-02T06:16:13.999Z,309.38
2022-08-02T06:17:09.507Z,315.00
2022-08-02T06:18:09.471Z,326.25
2022-08-02T06:19:09.464Z,331.88
2022-08-02T06:20:09.421Z,343.13
2022-08-02T06:22:31.753Z,343.13
2022-08-02T06:22:42.028Z,343.13
2022-08-02T06:23:13.373Z,343.13
2022-08-02T06:24:09.321Z,343.13
2022-08-02T06:25:11.558Z,343.13
2022-08-02T06:26:09.681Z,337.50
2022-08-02T06:27:09.229Z,326.25
2022-08-02T06:28:11.210Z,320.63
2022-08-02T06:29:09.183Z,320.63
2022-08-02T06:30:09.148Z,320.63
2022-08-02T06:31:09.172Z,320.63
2022-08-02T06:32:09.640Z,315.00
2022-08-02T06:33:09.071Z,315.00
2022-08-02T06:34:09.195Z,309.38
2022-08-02T06:35:09.016Z,315.00
2022-08-02T06:36:08.989Z,309.38
2022-08-02T06:37:09.172Z,315.00
2022-08-02T06:38:08.941Z,326.25
2022-08-02T06:39:08.909Z,320.63
2022-08-02T06:40:08.884Z,320.63
2022-08-02T06:41:09.143Z,326.25
2022-08-02T06:42:09.012Z,331.88
2022-08-02T06:43:08.908Z,331.88
2022-08-02T06:44:42.045Z,331.88
2022-08-02T06:45:08.796Z,331.88
2022-08-02T06:46:54.333Z,326.25
2022-08-02T06:47:11.256Z,326.25
2022-08-02T06:48:08.727Z,320.63
2022-08-02T06:49:08.747Z,315.00
2022-08-02T06:50:08.617Z,303.75
2022-08-02T06:51:09.563Z,298.13
2022-08-02T06:52:08.767Z,309.38
2022-08-02T06:53:08.543Z,309.38
2022-08-02T06:54:08.582Z,315.00
2022-08-02T06:55:09.064Z,315.00
2022-08-02T06:56:09.215Z,309.38
2022-08-02T06:57:08.435Z,309.38
2022-08-02T06:58:08.408Z,309.38
2022-08-02T06:59:08.496Z,315.00
2022-08-02T07:00:08.415Z,315.00
2022-08-02T07:01:08.357Z,315.00
2022-08-02T07:02:08.417Z,315.00
2022-08-02T07:03:08.278Z,309.38
2022-08-02T07:04:08.261Z,303.75
2022-08-02T07:05:08.271Z,303.75
2022-08-02T07:06:08.339Z,303.75
2022-08-02T07:07:08.261Z,298.13
2022-08-02T07:08:08.144Z,292.50
2022-08-02T07:09:22.193Z,286.88
2022-08-02T07:10:08.161Z,286.88
2022-08-02T07:11:08.068Z,286.88
2022-08-02T07:12:08.097Z,292.50
2022-08-02T07:13:08.028Z,292.50
2022-08-02T07:14:08.025Z,298.13
2022-08-02T07:15:08.044Z,303.75
2022-08-02T07:16:07.944Z,298.13
2022-08-02T07:17:07.911Z,303.75
2022-08-02T07:18:07.904Z,303.75
2022-08-02T07:19:07.861Z,298.13
2022-08-02T07:20:07.956Z,292.50
2022-08-02T07:21:08.775Z,286.88
2022-08-02T07:22:08.574Z,281.25
2022-08-02T07:23:07.754Z,270.00
2022-08-02T07:24:07.740Z,264.38
2022-08-02T07:25:07.700Z,247.50
2022-08-02T07:26:07.768Z,236.25
2022-08-02T07:27:12.357Z,230.63
2022-08-02T07:28:07.622Z,230.63
2022-08-02T07:29:07.606Z,241.88
2022-08-02T07:30:07.623Z,241.88
2022-08-02T07:31:07.584Z,241.88
2022-08-02T07:32:07.900Z,241.88
2022-08-02T07:33:07.521Z,241.88
2022-08-02T07:34:07.467Z,241.88
2022-08-02T07:35:07.670Z,241.88
2022-08-02T07:36:09.581Z,241.88
2022-08-02T07:37:07.398Z,247.50
2022-08-02T07:38:07.426Z,241.88
2022-08-02T07:39:07.338Z,241.88
2022-08-02T07:40:12.425Z,241.88
2022-08-02T07:41:07.298Z,241.88
2022-08-02T07:42:07.255Z,236.25
2022-08-02T07:43:07.284Z,236.25
2022-08-02T07:44:07.205Z,236.25
2022-08-02T07:45:07.198Z,236.25
2022-08-02T07:46:07.230Z,236.25
2022-08-02T07:47:07.136Z,236.25
2022-08-02T07:48:07.098Z,241.88
2022-08-02T07:49:07.226Z,241.88
2022-08-02T07:50:07.048Z,241.88
2022-08-02T07:51:07.015Z,236.25
2022-08-02T07:52:06.989Z,236.25
2022-08-02T07:53:06.967Z,236.25
2022-08-02T07:54:06.944Z,236.25
2022-08-02T07:55:06.964Z,241.88
2022-08-02T07:56:06.931Z,241.88
2022-08-02T07:57:07.696Z,247.50
2022-08-02T07:58:06.843Z,241.88
2022-08-02T07:59:06.816Z,241.88
2022-08-02T08:00:06.869Z,241.88
2022-08-02T08:01:06.860Z,241.88
2022-08-02T08:02:06.888Z,247.50
2022-08-02T08:03:06.703Z,247.50
2022-08-02T08:04:06.677Z,253.13
2022-08-02T08:05:06.704Z,253.13
2022-08-02T08:06:06.703Z,258.75
2022-08-02T08:07:06.611Z,270.00
2022-08-02T08:08:06.573Z,270.00
2022-08-02T08:09:06.544Z,275.63
2022-08-02T08:10:06.533Z,286.88
2022-08-02T08:11:07.281Z,298.13
2022-08-02T08:12:07.199Z,309.38
2022-08-02T08:13:06.472Z,320.63
2022-08-02T08:14:06.434Z,337.50
2022-08-02T08:15:06.386Z,348.75
2022-08-02T08:16:06.370Z,371.25
2022-08-02T08:17:07.098Z,371.25
2022-08-02T08:18:06.312Z,382.50
2022-08-02T08:19:06.287Z,388.13
2022-08-02T08:20:06.302Z,393.75
2022-08-02T08:21:06.435Z,405.00
2022-08-02T08:22:06.261Z,393.75
2022-08-02T08:23:06.183Z,388.13
2022-08-02T08:24:06.248Z,376.88
2022-08-02T08:25:06.129Z,371.25
2022-08-02T08:26:06.111Z,360.00
2022-08-02T08:27:06.447Z,343.13
2022-08-02T08:28:06.059Z,326.25
2022-08-02T08:29:06.031Z,309.38
2022-08-02T08:30:06.004Z,286.88
2022-08-02T08:31:06.597Z,275.63
2022-08-02T08:32:05.999Z,264.38
2022-08-02T08:33:05.976Z,258.75
2022-08-02T08:34:05.922Z,253.13
2022-08-02T08:35:05.931Z,247.50
2022-08-02T08:36:05.876Z,236.25
2022-08-02T08:37:05.829Z,236.25
2022-08-02T08:38:07.910Z,241.88
2022-08-02T08:39:05.785Z,258.75
2022-08-02T08:40:05.752Z,253.13
2022-08-02T08:41:05.934Z,253.13
2022-08-02T08:42:05.700Z,253.13
2022-08-02T08:43:05.675Z,253.13
2022-08-02T08:44:05.739Z,253.13
2022-08-02T08:45:05.622Z,253.13
2022-08-02T08:46:05.596Z,253.13
2022-08-02T08:47:05.693Z,253.13
2022-08-02T08:48:05.547Z,253.13
2022-08-02T08:49:05.857Z,253.13
2022-08-02T08:50:05.504Z,253.13
2022-08-02T08:51:05.478Z,253.13
2022-08-02T08:52:05.446Z,247.50
2022-08-02T08:53:05.423Z,253.13
2022-08-02T08:54:05.419Z,253.13
2022-08-02T08:55:05.414Z,258.75
2022-08-02T08:56:05.342Z,258.75
2022-08-02T08:57:05.316Z,258.75
2022-08-02T08:58:05.339Z,258.75
2022-08-02T08:59:05.317Z,258.75
2022-08-02T09:00:05.261Z,264.38
2022-08-02T09:01:05.282Z,270.00
2022-08-02T09:02:17.767Z,275.63
2022-08-02T09:03:05.183Z,270.00
2022-08-02T09:04:05.242Z,275.63
2022-08-02T09:05:05.115Z,275.63
2022-08-02T09:06:05.162Z,258.75
2022-08-02T09:07:05.074Z,275.63
2022-08-02T09:08:05.037Z,264.38
2022-08-02T09:09:05.010Z,281.25
2022-08-02T09:10:05.165Z,292.50
2022-08-02T09:11:04.956Z,292.50
2022-08-02T09:12:05.057Z,292.50
2022-08-02T09:13:05.736Z,298.13
2022-08-02T09:14:04.948Z,292.50
2022-08-02T09:15:04.853Z,303.75
2022-08-02T09:16:11.648Z,309.38
2022-08-02T09:17:04.807Z,309.38
2022-08-02T09:18:04.782Z,309.38
2022-08-02T09:19:07.839Z,309.38
2022-08-02T09:20:04.731Z,303.75
2022-08-02T09:21:04.705Z,275.63
2022-08-02T09:22:04.788Z,286.88
2022-08-02T09:23:04.665Z,281.25
2022-08-02T09:24:04.627Z,281.25
2022-08-02T09:25:04.611Z,292.50
2022-08-02T09:26:07.435Z,298.13
2022-08-02T09:27:04.559Z,281.25
2022-08-02T09:28:04.622Z,258.75
2022-08-02T09:29:04.500Z,264.38
2022-08-02T09:30:13.297Z,258.75
2022-08-02T09:31:04.452Z,258.75
2022-08-02T09:32:04.427Z,258.75
2022-08-02T09:33:05.717Z,258.75
2022-08-02T09:34:04.473Z,258.75
2022-08-02T09:35:04.357Z,258.75
2022-08-02T09:36:06.998Z,241.88
2022-08-02T09:37:04.309Z,258.75
2022-08-02T09:38:04.285Z,258.75
2022-08-02T09:39:04.257Z,253.13
2022-08-02T09:40:04.362Z,241.88
2022-08-02T09:41:04.215Z,230.63
2022-08-02T09:42:04.178Z,236.25
2022-08-02T09:43:04.147Z,253.13
2022-08-02T09:44:06.513Z,270.00
2022-08-02T09:45:04.151Z,264.38
2022-08-02T09:46:04.074Z,298.13
2022-08-02T09:47:04.050Z,315.00
2022-08-02T09:48:04.036Z,320.63
2022-08-02T09:49:04.039Z,303.75
2022-08-02T09:50:04.175Z,292.50
2022-08-02T09:51:03.948Z,281.25
2022-08-02T09:52:03.928Z,281.25
2022-08-02T09:53:03.901Z,281.25
2022-08-02T09:54:08.828Z,281.25
2022-08-02T09:55:03.845Z,275.63
2022-08-02T09:56:03.881Z,275.63
2022-08-02T09:57:03.867Z,281.25
2022-08-02T09:58:03.775Z,264.38
2022-08-02T09:59:03.745Z,264.38
2022-08-02T10:00:04.242Z,270.00
2022-08-02T10:01:04.279Z,275.63
2022-08-02T10:02:04.243Z,270.00
2022-08-02T10:03:06.324Z,270.00
2022-08-02T10:04:03.628Z,292.50
2022-08-02T10:05:05.132Z,286.88
2022-08-02T10:06:03.582Z,298.13
2022-08-02T10:07:03.558Z,270.00
2022-08-02T10:08:03.545Z,264.38
2022-08-02T10:09:05.926Z,253.13
2022-08-02T10:10:03.484Z,258.75
2022-08-02T10:11:03.650Z,258.75
2022-08-02T10:12:04.829Z,253.13
2022-08-02T10:13:03.406Z,258.75
2022-08-02T10:14:03.381Z,275.63
2022-08-02T10:15:04.739Z,286.88
2022-08-02T10:16:03.332Z,298.13
2022-08-02T10:17:03.304Z,309.38
2022-08-02T10:18:17.536Z,331.88
2022-08-02T10:19:03.253Z,326.25
2022-08-02T10:20:04.950Z,326.25
2022-08-02T10:21:05.185Z,331.88
2022-08-02T10:22:03.190Z,315.00
2022-08-02T10:23:03.743Z,320.63
2022-08-02T10:24:03.165Z,292.50
2022-08-02T10:25:03.111Z,286.88
2022-08-02T10:26:03.084Z,303.75
2022-08-02T10:27:03.142Z,292.50
2022-08-02T10:28:05.569Z,270.00
2022-08-02T10:29:03.004Z,258.75
2022-08-02T10:30:02.986Z,264.38
2022-08-02T10:31:03.886Z,281.25
2022-08-02T10:32:02.933Z,309.38
2022-08-02T10:33:02.979Z,303.75
2022-08-02T10:34:02.905Z,309.38
2022-08-02T10:35:19.803Z,309.38
2022-08-02T10:36:04.504Z,281.25
2022-08-02T10:37:02.809Z,286.88
2022-08-02T10:38:02.805Z,298.13
2022-08-02T10:39:02.831Z,286.88
2022-08-02T10:40:02.739Z,298.13
2022-08-02T10:41:02.715Z,320.63
2022-08-02T10:42:02.693Z,337.50
2022-08-02T10:43:02.670Z,326.25
2022-08-02T10:44:02.637Z,331.88
2022-08-02T10:45:02.849Z,326.25
2022-08-02T10:46:02.591Z,309.38
2022-08-02T10:47:03.249Z,298.13
2022-08-02T10:48:02.540Z,298.13
2022-08-02T10:49:13.729Z,286.88
2022-08-02T10:50:02.514Z,270.00
2022-08-02T10:51:02.520Z,247.50
2022-08-02T10:52:02.534Z,264.38
2022-08-02T10:53:02.416Z,264.38
2022-08-02T10:54:02.410Z,264.38
2022-08-02T10:55:02.373Z,264.38
2022-08-02T10:56:02.350Z,270.00
2022-08-02T10:57:02.333Z,270.00
2022-08-02T10:58:02.349Z,281.25
2022-08-02T10:59:02.284Z,281.25
2022-08-02T11:00:02.257Z,281.25
2022-08-02T11:01:02.264Z,275.63
2022-08-02T11:02:02.215Z,270.00
2022-08-02T11:03:02.222Z,281.25
2022-08-02T11:04:02.881Z,298.13
2022-08-02T11:05:02.129Z,320.63
2022-08-02T11:06:02.113Z,337.50
2022-08-02T11:07:02.077Z,337.50
2022-08-02T11:08:02.175Z,320.63
2022-08-02T11:09:04.326Z,303.75
2022-08-02T11:10:02.065Z,286.88
2022-08-02T11:11:01.992Z,270.00
2022-08-02T11:12:01.962Z,258.75
2022-08-02T11:13:01.949Z,253.13
2022-08-02T11:14:01.969Z,253.13
2022-08-02T11:15:01.896Z,258.75
2022-08-02T11:16:01.870Z,264.38
2022-08-02T11:17:01.840Z,270.00
2022-08-02T11:18:01.823Z,270.00
2022-08-02T11:19:01.864Z,275.63
2022-08-02T11:20:01.770Z,281.25
2022-08-02T11:21:01.754Z,298.13
2022-08-02T11:22:01.722Z,292.50
2022-08-02T11:23:01.698Z,298.13
2022-08-02T11:24:01.834Z,309.38
2022-08-02T11:25:01.665Z,331.88
2022-08-02T11:26:03.921Z,343.13
2022-08-02T11:27:01.634Z,331.88
2022-08-02T11:28:01.581Z,326.25
2022-08-02T11:29:01.577Z,320.63
2022-08-02T11:30:01.627Z,320.63
2022-08-02T11:31:01.513Z,309.38
2022-08-02T11:32:01.486Z,298.13
2022-08-02T11:33:01.466Z,286.88
2022-08-02T11:34:01.442Z,270.00
2022-08-02T11:35:01.466Z,258.75
2022-08-02T11:36:01.526Z,247.50
2022-08-02T11:37:01.372Z,241.88
2022-08-02T11:38:01.355Z,236.25
2022-08-02T11:39:01.327Z,236.25
2022-08-02T11:40:01.301Z,230.63
2022-08-02T11:41:01.284Z,230.63
2022-08-02T11:42:01.329Z,225.00
2022-08-02T11:43:01.232Z,219.38
2022-08-02T11:44:01.207Z,219.38
2022-08-02T11:45:01.186Z,219.38
2022-08-02T11:46:01.185Z,219.38
2022-08-02T11:47:01.236Z,219.38
2022-08-02T11:48:01.110Z,219.38
2022-08-02T11:49:01.183Z,225.00
2022-08-02T11:50:01.115Z,225.00
2022-08-02T11:51:01.776Z,219.38
2022-08-02T11:52:01.028Z,219.38
2022-08-02T11:53:01.154Z,219.38
2022-08-02T11:54:00.972Z,219.38
2022-08-02T11:55:00.949Z,213.75
2022-08-02T11:56:00.927Z,219.38
2022-08-02T11:57:00.901Z,219.38
2022-08-02T11:58:04.900Z,219.38
2022-08-02T11:59:00.924Z,219.38
2022-08-02T12:00:00.827Z,219.38
2022-08-02T12:01:00.808Z,219.38
2022-08-02T12:02:00.786Z,213.75
2022-08-02T12:03:00.946Z,213.75
2022-08-02T12:04:00.786Z,213.75
2022-08-02T12:05:00.777Z,213.75
2022-08-02T12:06:06.877Z,219.38
2022-08-02T12:07:00.663Z,219.38
2022-08-02T12:08:00.643Z,219.38
2022-08-02T12:09:00.632Z,219.38
2022-08-02T12:10:00.724Z,219.38
2022-08-02T12:11:00.573Z,219.38
2022-08-02T12:12:00.548Z,219.38
2022-08-02T12:13:00.536Z,225.00
2022-08-02T12:14:01.289Z,225.00
2022-08-02T12:15:00.563Z,225.00
2022-08-02T12:16:00.611Z,225.00
2022-08-02T12:17:00.436Z,225.00
2022-08-02T12:18:00.413Z,225.00
2022-08-02T12:19:00.386Z,225.00
2022-08-02T12:20:00.362Z,225.00
2022-08-02T12:21:00.463Z,225.00
2022-08-02T12:22:00.315Z,225.00
2022-08-02T12:23:00.290Z,219.38
2022-08-02T12:24:01.387Z,225.00
2022-08-02T12:25:00.252Z,219.38
2022-08-02T12:26:00.219Z,219.38
2022-08-02T12:27:00.248Z,219.38
2022-08-02T12:28:00.173Z,225.00
2022-08-02T12:29:00.153Z,225.00
2022-08-02T12:30:00.157Z,225.00
2022-08-02T12:31:00.121Z,225.00
2022-08-02T12:32:00.205Z,225.00
2022-08-02T12:33:00.055Z,230.63
2022-08-02T12:34:00.032Z,230.63
2022-08-02T12:35:00.014Z,230.63
2022-08-02T12:35:59.990Z,225.00
2022-08-02T12:37:00.025Z,225.00
2022-08-02T12:37:59.992Z,230.63
2022-08-02T12:38:59.916Z,225.00
2022-08-02T12:39:59.899Z,230.63
2022-08-02T12:40:59.871Z,230.63
2022-08-02T12:41:59.856Z,230.63